Time;durP1;ratioP1;P1;durP2;ratioP2;P2;SDS_P1;SDS_P2;PMS_P1;PMS_P2;Temp;Humidity;BMP_temperature;BMP_pressure;BME280_temperature;BME280_humidity;BME280_pressure;Samples;Min_cycle;Max_cycle;Signal;HPM_P1;HPM_P2
2023/06/20 00:02:15;;;;;;;21.25;17.92;;;;;;;23.57;55.24;101055.69;5068169;28;20083;-63
2023/06/20 00:04:40;;;;;;;19.88;17.77;;;;;;;23.58;54.85;101054.53;5056809;28;20029;-64
2023/06/20 00:07:05;;;;;;;21.00;17.15;;;;;;;23.47;55.78;101050.41;5066192;28;20521;-63
2023/06/20 00:09:31;;;;;;;16.83;14.95;;;;;;;23.57;54.91;101058.53;5065944;28;20036;-63
2023/06/20 00:11:56;;;;;;;19.33;16.73;;;;;;;23.55;54.64;101052.38;5085759;28;20036;-63
2023/06/20 00:14:21;;;;;;;17.63;15.70;;;;;;;23.56;54.17;101042.69;5083836;28;20395;-63
2023/06/20 00:16:47;;;;;;;16.63;14.80;;;;;;;23.49;54.09;101048.88;5085015;28;20370;-63
2023/06/20 00:19:12;;;;;;;17.83;15.90;;;;;;;23.54;53.78;101047.88;5079786;28;20027;-63
2023/06/20 00:21:39;;;;;;;17.95;14.43;;;;;;;23.57;54.11;101040.69;5071125;28;20036;-63
2023/06/20 00:24:09;;;;;;;19.48;15.15;;;;;;;23.41;54.48;101046.06;5078541;28;20032;-64
2023/06/20 00:26:38;;;;;;;18.90;14.80;;;;;;;23.38;54.60;101039.06;5083335;28;20050;-63
2023/06/20 00:29:04;;;;;;;16.55;14.80;;;;;;;23.46;54.53;101049.56;5093303;28;20028;-63
2023/06/20 00:31:29;;;;;;;17.88;15.10;;;;;;;23.36;54.16;101037.75;5088751;28;20036;-63
2023/06/20 00:33:54;;;;;;;16.70;14.95;;;;;;;23.42;54.69;101042.06;5091088;28;20036;-63
2023/06/20 00:36:25;;;;;;;17.55;14.60;;;;;;;23.42;54.20;101039.22;5091955;28;20028;-63
2023/06/20 00:38:54;;;;;;;19.05;14.55;;;;;;;23.38;54.14;101038.22;5091793;28;20016;-63
2023/06/20 00:41:20;;;;;;;16.27;14.60;;;;;;;23.38;54.22;101038.22;5064566;28;20028;-63
2023/06/20 00:43:49;;;;;;;17.00;13.73;;;;;;;23.41;54.01;101046.88;5073707;28;20134;-63
2023/06/20 00:46:23;;;;;;;17.98;14.57;;;;;;;23.34;54.20;101037.22;5073075;28;20028;-63
2023/06/20 00:48:49;;;;;;;16.38;14.15;;;;;;;23.37;54.00;101039.41;5072868;28;20118;-64
2023/06/20 00:51:16;;;;;;;17.95;14.93;;;;;;;23.34;54.24;101040.06;5072844;28;20567;-63
2023/06/20 00:53:42;;;;;;;17.67;14.30;;;;;;;23.35;54.12;101036.09;5072728;28;20035;-63
2023/06/20 00:56:10;;;;;;;16.30;14.55;;;;;;;23.24;54.13;101030.75;5072614;28;20028;-63
2023/06/20 00:58:35;;;;;;;17.02;14.95;;;;;;;23.31;54.23;101029.44;5055447;28;20400;-63
2023/06/20 01:01:00;;;;;;;18.33;15.00;;;;;;;23.27;54.29;101030.09;5065643;28;20020;-63
2023/06/20 01:03:26;;;;;;;16.85;15.13;;;;;;;23.27;54.30;101024.44;5072201;28;20483;-63
2023/06/20 01:06:04;;;;;;;19.55;15.48;;;;;;;23.28;53.76;101020.41;5072573;28;20029;-63
2023/06/20 01:08:45;;;;;;;17.90;15.10;;;;;;;23.22;54.09;101018.91;5072962;28;20036;-63
2023/06/20 01:11:28;;;;;;;19.65;15.93;;;;;;;23.20;54.22;101015.59;5072090;28;20040;-63
2023/06/20 01:13:56;;;;;;;18.73;15.90;;;;;;;23.23;54.08;101016.94;5072894;28;20043;-63
2023/06/20 01:16:43;;;;;;;19.52;15.73;;;;;;;23.22;54.02;101020.91;5054680;28;20037;-63
2023/06/20 01:19:38;;;;;;;17.65;15.75;;;;;;;23.21;53.82;101017.25;5052553;28;20055;-63
2023/06/20 01:22:09;;;;;;;19.20;16.10;;;;;;;23.13;54.45;101018.09;5052334;28;20060;-63
2023/06/20 01:24:44;;;;;;;;;;;;;;;23.31;53.13;101018.94;5052068;28;20052;-63
2023/06/20 01:27:15;;;;;;;18.15;15.32;;;;;;;23.09;54.53;101025.59;5052679;28;19913;-63
2023/06/20 01:29:52;;;;;;;17.63;15.80;;;;;;;23.15;54.00;101014.94;5051172;28;20446;-64
2023/06/20 01:32:21;;;;;;;20.67;15.50;;;;;;;23.14;53.75;101008.44;5067186;28;20339;-63
2023/06/20 01:34:56;;;;;;;17.58;15.63;;;;;;;23.16;53.60;101006.13;5073386;28;20036;-63
2023/06/20 01:37:24;;;;;;;17.50;15.52;;;;;;;23.13;54.27;101003.13;5092338;28;20415;-63
2023/06/20 01:39:51;;;;;;;18.40;14.90;;;;;;;23.11;54.22;101003.47;5092652;28;20044;-63
2023/06/20 01:42:23;;;;;;;17.27;15.45;;;;;;;23.04;54.53;101000.28;5092686;28;20024;-63
2023/06/20 01:44:49;;;;;;;17.42;15.55;;;;;;;23.05;53.88;100990.63;5091585;28;20471;-63
2023/06/20 01:47:17;;;;;;;18.92;15.68;;;;;;;23.07;53.72;100999.63;5092447;28;20028;-63
2023/06/20 01:49:46;;;;;;;19.52;16.13;;;;;;;23.06;53.92;100994.28;5081200;28;20032;-63
2023/06/20 01:52:15;;;;;;;17.67;15.88;;;;;;;23.03;53.69;100990.16;5071173;28;20028;-63
2023/06/20 01:54:46;;;;;;;17.75;15.27;;;;;;;23.06;53.68;100986.63;5072147;28;20108;-63
2023/06/20 01:57:12;;;;;;;17.98;16.08;;;;;;;23.02;53.67;100983.63;5071943;28;20051;-63
2023/06/20 01:59:40;;;;;;;17.42;15.63;;;;;;;23.00;53.81;100985.16;5070930;28;20502;-64
2023/06/20 02:02:05;;;;;;;18.45;15.38;;;;;;;22.99;53.84;100983.47;5072011;28;20048;-64
2023/06/20 02:04:33;;;;;;;17.70;14.80;;;;;;;22.91;53.91;100978.63;5071755;28;20020;-63
2023/06/20 02:07:02;;;;;;;16.27;14.57;;;;;;;22.95;53.66;100982.47;5067820;28;20276;-63
2023/06/20 02:09:28;;;;;;;17.35;15.35;;;;;;;22.91;53.58;100984.28;5062508;28;20025;-63
2023/06/20 02:11:55;;;;;;;17.63;15.82;;;;;;;22.90;53.47;100976.94;5071802;28;20043;-63
2023/06/20 02:14:20;;;;;;;19.15;15.00;;;;;;;22.89;53.22;100975.28;5070459;28;20075;-63
2023/06/20 02:16:48;;;;;;;17.00;15.30;;;;;;;22.90;53.19;100979.78;5071738;28;20060;-63
2023/06/20 02:19:14;;;;;;;16.77;14.90;;;;;;;22.86;53.73;100979.59;5070947;28;20040;-63
2023/06/20 02:21:44;;;;;;;18.65;15.52;;;;;;;22.81;53.89;100978.97;5068412;28;20029;-63
2023/06/20 02:24:15;;;;;;;15.90;14.27;;;;;;;22.83;53.36;100979.44;5066946;28;20036;-63
2023/06/20 02:26:43;;;;;;;18.20;14.63;;;;;;;22.82;53.36;100972.94;5070976;28;20060;-63
2023/06/20 02:29:10;;;;;;;18.38;14.88;;;;;;;22.78;53.31;100983.28;5070718;28;20388;-63
2023/06/20 02:31:39;;;;;;;17.75;14.80;;;;;;;22.79;53.65;100974.47;5071570;28;20033;-63
2023/06/20 02:34:07;;;;;;;17.02;15.07;;;;;;;22.74;54.08;100988.75;5070726;28;20032;-63
2023/06/20 02:36:34;;;;;;;16.67;14.88;;;;;;;22.76;54.18;100989.28;5071261;28;20506;-63
2023/06/20 02:39:00;;;;;;;17.67;15.75;;;;;;;22.75;54.95;100984.78;5061469;28;20032;-64
2023/06/20 02:41:25;;;;;;;19.60;15.73;;;;;;;22.69;55.02;100977.63;5050456;28;20037;-63
2023/06/20 02:43:50;;;;;;;21.40;16.35;;;;;;;22.70;55.07;100986.94;5050859;28;20163;-63
2023/06/20 02:46:22;;;;;;;20.92;16.88;;;;;;;22.67;54.68;100981.94;5051435;28;20112;-63
2023/06/20 02:49:08;;;;;;;20.73;16.48;;;;;;;22.75;54.20;100978.28;5050376;28;20029;-63
2023/06/20 02:51:42;;;;;;;18.70;16.60;;;;;;;22.71;54.22;100978.09;5050516;28;20485;-63
2023/06/20 02:54:21;;;;;;;18.00;16.00;;;;;;;22.70;53.94;100979.28;5050680;28;20053;-63
2023/06/20 02:56:53;;;;;;;16.73;14.93;;;;;;;22.70;53.46;100984.94;5052973;28;20036;-63
2023/06/20 02:59:21;;;;;;;17.40;15.60;;;;;;;22.70;54.09;100984.09;5051208;28;20412;-63
2023/06/20 03:01:48;;;;;;;19.52;15.65;;;;;;;22.65;54.06;100979.44;5073083;28;20024;-63
2023/06/20 03:04:17;;;;;;;17.85;14.43;;;;;;;22.61;53.97;100977.63;5085278;28;20024;-63
2023/06/20 03:06:44;;;;;;;16.42;14.73;;;;;;;22.66;53.73;100977.44;5090429;28;20020;-63
2023/06/20 03:09:11;;;;;;;16.08;14.45;;;;;;;22.65;53.74;100973.78;5075104;28;20045;-63
2023/06/20 03:11:37;;;;;;;18.77;14.52;;;;;;;22.64;53.47;100971.31;5063806;28;20135;-63
2023/06/20 03:14:03;;;;;;;15.85;13.93;;;;;;;22.62;53.59;100970.78;5071185;28;20158;-63
2023/06/20 03:16:30;;;;;;;16.15;14.27;;;;;;;22.63;53.71;100964.78;5081154;28;20029;-64
2023/06/20 03:18:56;;;;;;;16.70;14.20;;;;;;;22.59;53.72;100960.97;5070436;28;20036;-64
2023/06/20 03:21:23;;;;;;;17.13;14.63;;;;;;;22.53;53.74;100960.31;5075305;28;20506;-64
2023/06/20 03:23:48;;;;;;;17.38;14.90;;;;;;;22.51;53.80;100956.94;5089710;28;20027;-63
2023/06/20 03:26:14;;;;;;;16.67;14.93;;;;;;;22.52;53.59;100969.13;5081472;28;20101;-63
2023/06/20 03:28:39;;;;;;;19.10;15.13;;;;;;;22.49;53.98;100973.44;5069650;28;20395;-63
2023/06/20 03:31:04;;;;;;;16.70;13.57;;;;;;;22.47;53.88;100977.75;5069880;28;20506;-63
2023/06/20 03:33:30;;;;;;;19.33;14.32;;;;;;;22.47;53.91;100974.91;5070503;28;20033;-64
2023/06/20 03:35:55;;;;;;;16.58;14.30;;;;;;;22.45;54.75;100972.44;5074963;28;20023;-63
2023/06/20 03:38:20;;;;;;;18.55;13.95;;;;;;;22.45;54.08;100978.09;5089016;28;20527;-63
2023/06/20 03:40:46;;;;;;;15.43;13.88;;;;;;;22.39;54.74;100985.06;5089030;28;20042;-63
2023/06/20 03:43:11;;;;;;;15.60;14.10;;;;;;;22.35;54.80;100984.06;5089756;28;20032;-63
2023/06/20 03:45:36;;;;;;;17.33;13.55;;;;;;;22.29;54.84;100993.88;5065792;28;20133;-63
2023/06/20 03:48:02;;;;;;;15.52;13.90;;;;;;;22.26;55.05;100994.53;5071874;28;20060;-63
2023/06/20 03:50:27;;;;;;;15.95;14.32;;;;;;;22.22;55.27;101011.31;5062883;28;20032;-63
2023/06/20 03:52:52;;;;;;;17.60;14.43;;;;;;;22.20;55.29;101013.63;5069983;28;20033;-63
2023/06/20 03:55:17;;;;;;;16.90;13.48;;;;;;;22.18;55.66;101010.28;5074549;28;20036;-63
2023/06/20 03:57:43;;;;;;;15.40;13.38;;;;;;;22.16;55.32;101017.44;5073377;28;20111;-64
2023/06/20 04:00:12;;;;;;;16.38;14.68;;;;;;;22.13;55.27;101018.94;5074273;28;20064;-63
2023/06/20 04:02:41;;;;;;;16.77;14.15;;;;;;;22.10;55.45;101016.72;5090056;28;20534;-64
2023/06/20 04:05:10;;;;;;;16.38;13.77;;;;;;;22.11;55.44;101015.56;5068693;28;20036;-63
2023/06/20 04:07:36;;;;;;;17.95;13.40;;;;;;;22.07;55.88;101017.38;5054398;28;20036;-63
2023/06/20 04:10:01;;;;;;;18.65;15.82;;;;;;;22.08;56.01;101019.03;5064435;28;20020;-63
2023/06/20 04:12:26;;;;;;;18.10;14.65;;;;;;;22.03;56.21;101019.19;5072733;28;20090;-63
2023/06/20 04:14:53;;;;;;;16.98;15.27;;;;;;;22.06;56.29;101018.53;5073093;28;20053;-65
2023/06/20 04:17:19;;;;;;;17.83;14.43;;;;;;;22.06;56.33;101007.22;5073704;28;20488;-63
2023/06/20 04:19:44;;;;;;;17.00;15.30;;;;;;;21.99;56.84;101004.03;5074279;28;20047;-63
2023/06/20 04:22:11;;;;;;;15.75;14.18;;;;;;;22.00;56.70;100998.06;5082846;28;20455;-63
2023/06/20 04:24:37;;;;;;;16.75;14.88;;;;;;;21.98;56.90;100999.56;5069020;28;20020;-63
2023/06/20 04:27:02;;;;;;;17.40;15.55;;;;;;;22.02;56.75;100997.75;5086650;28;20024;-63
2023/06/20 04:29:29;;;;;;;17.70;14.57;;;;;;;21.98;56.54;100989.09;5093882;28;20502;-63
2023/06/20 04:31:54;;;;;;;18.23;15.73;;;;;;;22.04;56.81;100984.09;5093543;28;20028;-63
2023/06/20 04:34:23;;;;;;;17.75;15.55;;;;;;;21.95;57.29;100984.06;5093556;28;20036;-63
2023/06/20 04:36:48;;;;;;;17.02;15.23;;;;;;;21.98;57.26;100986.25;5094034;28;20081;-63
2023/06/20 04:39:13;;;;;;;18.50;15.23;;;;;;;22.00;57.02;100991.56;5077213;28;20024;-63
2023/06/20 04:41:39;;;;;;;17.40;15.43;;;;;;;22.01;57.44;100982.78;5056688;28;20484;-63
2023/06/20 04:44:04;;;;;;;18.92;16.90;;;;;;;22.02;56.64;100987.25;5053396;28;20040;-63
2023/06/20 04:46:29;;;;;;;19.92;16.67;;;;;;;22.01;56.18;100979.97;5053270;28;20048;-63
2023/06/20 04:48:55;;;;;;;18.10;16.20;;;;;;;22.07;57.73;100969.31;5061318;28;20043;-63
2023/06/20 04:51:20;;;;;;;19.75;16.48;;;;;;;22.10;57.67;100976.31;5073473;28;20081;-63
2023/06/20 04:53:48;;;;;;;18.48;16.60;;;;;;;22.17;57.88;100969.06;5073070;28;20040;-63
2023/06/20 04:56:15;;;;;;;18.10;16.33;;;;;;;22.18;57.20;100969.88;5072070;28;20025;-63
2023/06/20 04:58:40;;;;;;;17.38;15.57;;;;;;;22.25;56.92;100970.25;5073306;28;20376;-63
2023/06/20 05:01:06;;;;;;;17.60;16.00;;;;;;;22.30;57.59;100973.75;5067080;28;20032;-63
2023/06/20 05:03:31;;;;;;;20.83;16.50;;;;;;;22.32;56.96;100964.91;5053256;28;20032;-63
2023/06/20 05:05:56;;;;;;;19.63;15.77;;;;;;;22.41;56.45;100965.78;5052160;28;20025;-63
2023/06/20 05:08:22;;;;;;;16.40;14.70;;;;;;;22.48;55.98;100963.31;5052222;28;20152;-63
2023/06/20 05:10:47;;;;;;;20.55;16.30;;;;;;;22.49;55.96;100961.31;5052795;28;20032;-63
2023/06/20 05:13:13;;;;;;;18.83;16.85;;;;;;;22.57;56.51;100953.97;5053010;28;20497;-63
2023/06/20 05:15:38;;;;;;;20.92;17.88;;;;;;;22.58;56.64;100950.81;5076707;28;20468;-63
2023/06/20 05:18:03;;;;;;;19.35;17.27;;;;;;;22.63;56.98;100941.31;5058217;28;20056;-63
2023/06/20 05:20:28;;;;;;;19.75;17.70;;;;;;;22.69;57.15;100940.84;5053018;28;20021;-64
2023/06/20 05:22:54;;;;;;;20.73;18.63;;;;;;;22.78;56.81;100944.47;5052042;28;20052;-64
2023/06/20 05:25:19;;;;;;;14.02;12.70;;;;;;;22.85;56.84;100949.66;5052558;28;20029;-64
2023/06/20 05:27:46;;;;;;;13.05;10.55;;;;;;;22.88;56.74;100942.50;5052674;28;20457;-64
2023/06/20 05:30:11;;;;;;;11.52;9.63;;;;;;;22.95;56.78;100942.84;5052873;28;20029;-64
2023/06/20 05:32:37;;;;;;;13.55;8.95;;;;;;;23.00;56.79;100929.34;5058961;28;20114;-65
2023/06/20 05:35:04;;;;;;;9.10;8.20;;;;;;;23.11;56.84;100929.00;5052751;28;20057;-64
2023/06/20 05:37:30;;;;;;;9.57;7.97;;;;;;;23.13;57.12;100927.50;5051917;28;20492;-62
2023/06/20 05:39:56;;;;;;;7.40;5.93;;;;;;;23.22;56.93;100924.63;5058243;28;20024;-63
2023/06/20 05:42:21;;;;;;;8.35;5.93;;;;;;;23.32;54.58;100914.97;5061227;28;20025;-64
2023/06/20 05:44:47;;;;;;;7.05;6.35;;;;;;;23.36;55.91;100927.28;5075187;28;20037;-63
2023/06/20 05:47:17;;;;;;;6.55;5.95;;;;;;;23.44;53.62;100926.41;5073954;28;20029;-64
2023/06/20 05:49:46;;;;;;;6.95;5.88;;;;;;;23.52;54.34;100925.56;5079265;28;20024;-64
2023/06/20 05:52:12;;;;;;;7.80;6.40;;;;;;;23.60;54.14;100921.84;5091720;28;20028;-64
2023/06/20 05:54:37;;;;;;;7.30;6.15;;;;;;;23.64;55.06;100934.16;5088132;28;20132;-64
2023/06/20 05:57:05;;;;;;;7.30;6.60;;;;;;;23.71;55.32;100940.19;5092775;28;20020;-64
2023/06/20 05:59:31;;;;;;;8.43;6.95;;;;;;;23.73;55.08;100943.50;5068728;28;20028;-64
2023/06/20 06:01:56;;;;;;;8.90;7.13;;;;;;;23.74;55.98;100939.50;5072404;28;20104;-63
2023/06/20 06:04:22;;;;;;;6.40;5.75;;;;;;;23.78;54.41;100945.31;5071090;28;20116;-64
2023/06/20 06:06:47;;;;;;;6.43;5.82;;;;;;;23.71;55.47;100943.00;5082606;28;20045;-63
2023/06/20 06:09:12;;;;;;;7.05;5.93;;;;;;;23.69;56.30;100953.00;5091991;28;20128;-65
2023/06/20 06:11:38;;;;;;;9.00;6.07;;;;;;;23.65;56.73;100960.50;5089559;28;20081;-63
2023/06/20 06:14:03;;;;;;;6.07;5.45;;;;;;;23.56;57.13;100954.03;5072732;28;20032;-64
2023/06/20 06:16:28;;;;;;;6.25;5.65;;;;;;;23.59;57.38;100959.03;5065965;28;20503;-64
2023/06/20 06:18:54;;;;;;;6.93;5.78;;;;;;;23.61;56.91;100954.69;5069313;28;20079;-65
2023/06/20 06:21:19;;;;;;;6.18;5.63;;;;;;;23.59;57.31;100947.72;5070378;28;20040;-65
2023/06/20 06:23:44;;;;;;;6.57;5.97;;;;;;;23.53;57.72;100958.38;5073621;28;20036;-64
2023/06/20 06:26:11;;;;;;;6.35;5.75;;;;;;;23.56;57.58;100945.53;5076178;28;20032;-65
2023/06/20 06:28:36;;;;;;;6.95;5.72;;;;;;;23.64;57.38;100941.84;5070430;28;20063;-65
2023/06/20 06:31:10;;;;;;;6.50;5.53;;;;;;;23.73;57.38;100945.50;5059635;28;20475;-65
2023/06/20 06:33:36;;;;;;;7.93;6.80;;;;;;;23.80;57.43;100956.31;5052865;28;20024;-65
2023/06/20 06:36:05;;;;;;;6.57;5.97;;;;;;;23.79;57.48;100951.81;5068529;28;20024;-65
2023/06/20 06:38:32;;;;;;;8.15;6.18;;;;;;;23.95;56.12;100962.25;5070201;28;20039;-65
2023/06/20 06:40:59;;;;;;;7.00;6.28;;;;;;;23.97;57.05;100959.06;5076653;28;20020;-65
2023/06/20 06:43:25;;;;;;;9.77;6.57;;;;;;;23.96;56.76;100952.56;5078238;28;20058;-65
2023/06/20 06:45:51;;;;;;;11.00;7.13;;;;;;;24.00;57.01;100947.88;5068332;28;20036;-64
2023/06/20 06:48:16;;;;;;;10.70;7.32;;;;;;;24.02;57.13;100952.38;5070080;28;20039;-64
2023/06/20 06:50:43;;;;;;;9.05;6.75;;;;;;;24.09;56.88;100953.50;5056019;28;20033;-65
2023/06/20 06:53:09;;;;;;;6.43;5.75;;;;;;;24.18;56.37;100942.94;5063681;28;20040;-65
2023/06/20 06:55:34;;;;;;;8.60;6.28;;;;;;;24.29;56.49;100942.50;5069059;28;20028;-65
2023/06/20 06:58:00;;;;;;;10.98;6.32;;;;;;;24.38;56.57;100946.16;5070505;28;20124;-64
2023/06/20 07:00:26;;;;;;;6.95;6.18;;;;;;;24.46;56.51;100945.28;5069617;28;20021;-65
2023/06/20 07:02:51;;;;;;;8.63;6.20;;;;;;;24.56;56.87;100950.53;5069512;28;20021;-65
2023/06/20 07:05:16;;;;;;;8.50;6.72;;;;;;;24.61;56.17;100943.84;5067312;28;20033;-64
2023/06/20 07:07:41;;;;;;;7.10;6.40;;;;;;;24.61;55.66;100939.00;5076710;28;20028;-63
2023/06/20 07:10:07;;;;;;;7.55;6.25;;;;;;;24.66;56.04;100949.31;5069500;28;20032;-64
2023/06/20 07:12:32;;;;;;;6.57;5.90;;;;;;;24.71;56.57;100941.38;5061008;28;20037;-64
2023/06/20 07:14:58;;;;;;;6.57;5.70;;;;;;;24.73;55.50;100938.22;5048871;28;20048;-63
2023/06/20 07:17:24;;;;;;;7.57;6.00;;;;;;;24.79;55.96;100936.00;5063861;28;20025;-63
2023/06/20 07:19:49;;;;;;;7.88;6.13;;;;;;;24.78;55.83;100940.03;5074370;28;20032;-63
2023/06/20 07:22:15;;;;;;;6.38;5.78;;;;;;;24.84;55.45;100925.28;5068462;28;20403;-64
2023/06/20 07:24:40;;;;;;;7.68;6.15;;;;;;;24.91;55.53;100934.03;5080072;28;20028;-64
2023/06/20 07:27:05;;;;;;;8.15;6.00;;;;;;;24.99;55.69;100923.78;5062069;28;20035;-64
2023/06/20 07:29:31;;;;;;;6.65;6.05;;;;;;;25.05;55.47;100930.91;5077847;28;20074;-64
2023/06/20 07:31:57;;;;;;;8.00;5.75;;;;;;;25.17;55.38;100930.16;5089398;28;20081;-63
2023/06/20 07:34:22;;;;;;;7.70;6.63;;;;;;;25.17;55.33;100921.63;5081260;28;20131;-63
2023/06/20 07:36:48;;;;;;;6.55;5.95;;;;;;;25.22;55.17;100918.56;5088445;28;20039;-63
2023/06/20 07:39:13;;;;;;;6.72;6.10;;;;;;;25.26;55.47;100910.16;5085526;28;20055;-63
2023/06/20 07:41:41;;;;;;;10.55;6.47;;;;;;;25.31;54.95;100916.47;5089148;28;20534;-63
2023/06/20 07:44:10;;;;;;;8.02;5.95;;;;;;;25.32;54.36;100905.94;5075959;28;20029;-63
2023/06/20 07:46:36;;;;;;;8.60;5.90;;;;;;;25.36;53.94;100919.06;5080213;28;20486;-63
2023/06/20 07:49:01;;;;;;;6.88;6.13;;;;;;;25.41;53.61;100924.53;5078333;28;20028;-64
2023/06/20 07:51:31;;;;;;;8.18;5.90;;;;;;;25.43;54.15;100929.88;5075464;28;20028;-63
2023/06/20 07:53:56;;;;;;;7.38;6.10;;;;;;;25.46;54.29;100923.47;5069171;28;20032;-64
2023/06/20 07:56:21;;;;;;;6.40;5.75;;;;;;;25.59;53.95;100932.84;5070065;28;20024;-64
2023/06/20 07:58:47;;;;;;;10.23;6.20;;;;;;;25.54;52.57;100933.06;5068572;28;20035;-64
2023/06/20 08:01:17;;;;;;;7.82;6.30;;;;;;;25.60;53.89;100932.50;5062736;28;20021;-66
2023/06/20 08:03:43;;;;;;;9.57;7.15;;;;;;;25.73;54.13;100932.50;5055996;28;20033;-62
2023/06/20 08:06:09;;;;;;;8.65;7.80;;;;;;;25.63;54.13;100930.97;5072850;28;20035;-61
2023/06/20 08:08:35;;;;;;;7.50;6.80;;;;;;;25.78;54.01;100912.41;5089260;28;20024;-62
2023/06/20 08:11:00;;;;;;;6.53;5.93;;;;;;;25.79;54.14;100922.59;5071682;28;20078;-62
2023/06/20 08:13:27;;;;;;;7.47;5.85;;;;;;;25.77;52.82;100927.78;5088741;28;20077;-62
2023/06/20 08:15:52;;;;;;;5.97;5.40;;;;;;;25.79;53.79;100933.97;5074254;28;20040;-59
2023/06/20 08:18:17;;;;;;;6.15;5.55;;;;;;;25.78;53.13;100920.91;5060767;28;20373;-60
2023/06/20 08:20:45;;;;;;;8.95;5.15;;;;;;;25.82;53.25;100919.03;5081951;28;20028;-60
2023/06/20 08:23:10;;;;;;;5.45;4.95;;;;;;;25.86;53.45;100920.84;5053249;28;20055;-61
2023/06/20 08:25:35;;;;;;;6.68;5.88;;;;;;;25.89;53.11;100917.25;5048532;28;20163;-62
2023/06/20 08:28:02;;;;;;;6.68;5.68;;;;;;;25.91;52.84;100920.59;5049235;28;20053;-61
2023/06/20 08:30:27;;;;;;;4.82;4.43;;;;;;;25.91;52.36;100919.75;5048760;28;20027;-61
2023/06/20 08:32:52;;;;;;;5.88;5.30;;;;;;;25.92;52.77;100916.53;5063847;28;20139;-61
2023/06/20 08:35:18;;;;;;;5.35;4.95;;;;;;;25.95;52.50;100921.53;5068664;28;20028;-62
2023/06/20 08:37:43;;;;;;;6.32;5.10;;;;;;;25.97;52.62;100926.84;5076387;28;20025;-61
2023/06/20 08:40:14;;;;;;;6.55;5.95;;;;;;;26.02;53.11;100923.78;5070665;28;20392;-61
2023/06/20 08:42:42;;;;;;;7.57;5.40;;;;;;;26.04;52.39;100929.09;5072127;28;20037;-60
2023/06/20 08:45:08;;;;;;;5.70;5.13;;;;;;;26.14;52.76;100922.94;5072636;28;20021;-61
2023/06/20 08:47:33;;;;;;;9.40;4.50;;;;;;;26.20;52.46;100925.16;5071458;28;20504;-61
2023/06/20 08:49:59;;;;;;;5.35;4.63;;;;;;;26.25;51.93;100911.88;5072577;28;20111;-61
2023/06/20 08:52:29;;;;;;;6.82;4.22;;;;;;;26.27;52.41;100926.59;5078859;28;20368;-60
2023/06/20 08:54:55;;;;;;;5.30;4.80;;;;;;;26.18;51.50;100913.34;5092757;28;20023;-61
2023/06/20 08:57:20;;;;;;;6.82;4.30;;;;;;;26.14;52.18;100906.72;5074555;28;20017;-62
2023/06/20 08:59:46;;;;;;;4.93;4.43;;;;;;;26.20;52.40;100905.25;5081942;28;20038;-61
2023/06/20 09:02:11;;;;;;;6.63;4.57;;;;;;;26.30;52.15;100894.59;5090021;28;20024;-61
2023/06/20 09:04:36;;;;;;;4.65;4.25;;;;;;;26.38;51.04;100890.78;5082640;28;20028;-61
2023/06/20 09:07:14;;;;;;;5.47;4.97;;;;;;;26.41;51.75;100907.13;5085465;28;20078;-61
2023/06/20 09:09:40;;;;;;;6.47;5.30;;;;;;;26.38;51.86;100905.81;5077913;28;20047;-61
2023/06/20 09:12:07;;;;;;;5.70;4.80;;;;;;;26.36;52.16;100899.66;5085250;28;20487;-61
2023/06/20 09:14:32;;;;;;;5.95;4.47;;;;;;;26.50;52.33;100905.00;5062817;28;20049;-61
2023/06/20 09:16:59;;;;;;;7.63;4.65;;;;;;;26.57;51.52;100901.56;5053109;28;20040;-61
2023/06/20 09:19:25;;;;;;;5.18;4.68;;;;;;;26.64;51.52;100913.13;5076103;28;20020;-62
2023/06/20 09:21:50;;;;;;;5.63;4.63;;;;;;;26.70;51.10;100913.72;5087330;28;20101;-62
2023/06/20 09:24:20;;;;;;;5.03;4.57;;;;;;;26.73;51.77;100921.53;5072274;28;20060;-62
2023/06/20 09:26:48;;;;;;;5.25;4.43;;;;;;;26.77;51.19;100916.78;5071584;28;20487;-62
2023/06/20 09:29:15;;;;;;;5.53;4.70;;;;;;;26.92;51.00;100921.72;5073829;28;20130;-61
2023/06/20 09:31:45;;;;;;;5.45;4.38;;;;;;;26.88;50.74;100930.16;5071090;28;20072;-61
2023/06/20 09:34:12;;;;;;;6.20;4.78;;;;;;;26.92;50.66;100921.72;5060340;28;20039;-61
2023/06/20 09:36:39;;;;;;;7.25;4.78;;;;;;;26.90;50.23;100915.53;5050979;28;20028;-61
2023/06/20 09:39:07;;;;;;;4.93;4.43;;;;;;;26.94;50.56;100913.63;5053675;28;20027;-61
2023/06/20 09:41:33;;;;;;;5.18;3.88;;;;;;;27.09;49.91;100918.53;5082592;28;20407;-65
2023/06/20 09:43:58;;;;;;;4.53;4.07;;;;;;;27.03;49.66;100924.84;5080303;28;20043;-61
2023/06/20 09:46:26;;;;;;;6.63;4.05;;;;;;;27.16;49.88;100913.06;5073765;28;20072;-65
2023/06/20 09:48:52;;;;;;;4.93;4.43;;;;;;;27.15;50.19;100919.09;5064176;28;20074;-61
2023/06/20 09:51:18;;;;;;;4.50;4.13;;;;;;;27.12;49.97;100911.31;5048561;28;20488;-61
2023/06/20 09:53:51;;;;;;;5.53;4.50;;;;;;;27.09;49.65;100912.00;5048930;28;20103;-64
2023/06/20 09:56:19;;;;;;;6.38;4.13;;;;;;;27.16;50.07;100910.22;5057471;28;20024;-64
2023/06/20 09:58:47;;;;;;;7.18;4.18;;;;;;;27.25;49.57;100912.06;5065886;28;20507;-63
2023/06/20 10:01:14;;;;;;;4.85;4.22;;;;;;;27.46;49.23;100918.34;5072953;28;20033;-63
2023/06/20 10:03:41;;;;;;;6.47;3.70;;;;;;;27.54;49.40;100920.19;5070973;28;20044;-63
2023/06/20 10:06:08;;;;;;;5.68;4.18;;;;;;;27.60;48.83;100921.56;5068887;28;20115;-62
2023/06/20 10:08:34;;;;;;;4.35;3.70;;;;;;;27.49;48.35;100914.75;5086948;28;20028;-62
2023/06/20 10:10:59;;;;;;;4.93;3.80;;;;;;;27.51;47.40;100914.38;5074432;28;20024;-61
2023/06/20 10:13:26;;;;;;;4.15;3.35;;;;;;;27.54;47.48;100916.50;5071410;28;20545;-62
2023/06/20 10:15:51;;;;;;;4.53;3.75;;;;;;;27.51;47.09;100906.69;5068054;28;20503;-65
2023/06/20 10:18:32;;;;;;;3.60;3.30;;;;;;;27.53;47.84;100895.72;5069986;28;20103;-65
2023/06/20 10:21:00;;;;;;;4.40;3.80;;;;;;;27.64;47.61;100893.97;5070499;28;20106;-60
2023/06/20 10:23:35;;;;;;;4.20;3.78;;;;;;;27.61;47.25;100894.72;5069387;28;20036;-61
2023/06/20 10:26:03;;;;;;;3.85;3.42;;;;;;;27.64;47.15;100893.97;5068166;28;20261;-62
2023/06/20 10:28:29;;;;;;;4.25;3.50;;;;;;;27.67;47.47;100886.72;5063411;28;20036;-62
2023/06/20 10:31:01;;;;;;;4.00;3.35;;;;;;;27.81;47.03;100884.25;5054307;28;20020;-61
2023/06/20 10:33:27;;;;;;;3.70;2.90;;;;;;;27.91;47.30;100874.31;5060947;28;20444;-62
2023/06/20 10:35:56;;;;;;;3.85;3.13;;;;;;;27.78;46.47;100867.84;5056809;28;20037;-62
2023/06/20 10:38:21;;;;;;;3.30;3.03;;;;;;;27.87;46.36;100867.69;5049692;28;20033;-62
2023/06/20 10:40:47;;;;;;;3.70;3.40;;;;;;;27.89;47.58;100853.84;5066312;28;20373;-61
2023/06/20 10:43:18;;;;;;;4.85;3.08;;;;;;;28.07;46.92;100857.97;5067687;28;20446;-62
2023/06/20 10:45:57;;;;;;;5.63;3.10;;;;;;;28.06;46.77;100850.63;5059039;28;20037;-63
2023/06/20 10:48:24;;;;;;;2.78;2.53;;;;;;;28.14;45.83;100851.59;5067923;28;20063;-62
2023/06/20 10:50:49;;;;;;;3.85;2.80;;;;;;;28.19;45.62;100845.59;5062065;28;20056;-62
2023/06/20 10:53:15;;;;;;;3.05;2.83;;;;;;;28.13;45.58;100847.06;5069294;28;20070;-62
2023/06/20 10:55:40;;;;;;;3.00;2.00;;;;;;;28.19;43.18;100857.00;5057935;28;20036;-62
2023/06/20 10:58:06;;;;;;;3.10;2.40;;;;;;;28.23;42.98;100851.38;5082596;28;20438;-61
2023/06/20 11:00:31;;;;;;;4.50;2.20;;;;;;;28.31;43.14;100847.50;5082623;28;20036;-61
2023/06/20 11:02:57;;;;;;;3.72;2.38;;;;;;;28.46;43.32;100838.06;5058944;28;20032;-61
2023/06/20 11:05:27;;;;;;;2.88;2.53;;;;;;;28.46;43.46;100831.53;5066092;28;20043;-61
2023/06/20 11:08:01;;;;;;;3.55;2.70;;;;;;;28.56;43.83;100831.75;5073323;28;20027;-62
2023/06/20 11:10:34;;;;;;;2.70;2.50;;;;;;;28.62;43.43;100833.09;5083637;28;20025;-63
2023/06/20 11:13:01;;;;;;;2.90;2.50;;;;;;;28.68;43.00;100827.06;5070084;28;20395;-61
2023/06/20 11:15:35;;;;;;;4.13;2.67;;;;;;;28.66;42.61;100835.22;5085334;28;20139;-62
2023/06/20 11:18:02;;;;;;;4.22;2.60;;;;;;;28.66;43.20;100838.06;5052904;28;20223;-61